createdAt,value
2018-12-19T00:03:03.552Z,10.13
2018-12-19T00:08:07.171Z,9.07
2018-12-19T00:13:14.769Z,11.67
2018-12-19T00:18:18.293Z,10.27
2018-12-19T00:23:21.720Z,10.67
2018-12-19T00:28:25.324Z,10.73
2018-12-19T00:33:28.780Z,11.43
2018-12-19T00:38:32.186Z,12.00
2018-12-19T00:43:35.876Z,11.63
2018-12-19T00:48:39.431Z,11.23
2018-12-19T00:53:43.108Z,11.07
2018-12-19T00:58:46.549Z,11.77
2018-12-19T01:03:50.024Z,9.93
2018-12-19T01:08:54.059Z,10.50
2018-12-19T01:13:57.519Z,13.10
2018-12-19T01:19:01.094Z,12.13
2018-12-19T01:24:04.908Z,12.97
2018-12-19T01:29:08.525Z,11.70
2018-12-19T01:34:13.257Z,11.53
2018-12-19T01:39:22.350Z,12.03
2018-12-19T01:44:22.544Z,10.97
2018-12-19T01:49:26.073Z,13.17
2018-12-19T01:54:29.567Z,12.43
2018-12-19T01:59:33.032Z,12.90
2018-12-19T02:04:36.447Z,13.07
2018-12-19T02:09:39.953Z,13.87
2018-12-19T02:14:43.360Z,13.07
2018-12-19T02:19:47.053Z,12.73
2018-12-19T02:24:50.728Z,13.00
2018-12-19T02:29:54.376Z,12.30
2018-12-19T02:34:57.813Z,12.63
2018-12-19T02:40:01.253Z,13.80
2018-12-19T02:45:05.064Z,11.53
2018-12-19T02:50:08.663Z,13.93
2018-12-19T02:55:12.261Z,12.67
2018-12-19T03:00:15.688Z,13.63
2018-12-19T03:05:19.292Z,14.43
2018-12-19T03:10:22.704Z,13.90
2018-12-19T03:15:26.227Z,14.47
2018-12-19T03:20:30.088Z,13.60
2018-12-19T03:25:33.549Z,13.23
2018-12-19T03:30:37.108Z,13.93
2018-12-19T03:35:40.829Z,13.77
2018-12-19T03:40:44.245Z,14.13
2018-12-19T03:45:47.746Z,13.17
2018-12-19T03:50:51.332Z,12.53
2018-12-19T03:55:54.796Z,13.27
2018-12-19T04:00:58.307Z,13.33
2018-12-19T04:06:01.752Z,12.93
2018-12-19T04:11:05.171Z,13.33
2018-12-19T04:16:08.585Z,12.43
2018-12-19T04:21:12.268Z,12.93
2018-12-19T04:26:15.689Z,11.77
2018-12-19T04:31:19.275Z,12.80
2018-12-19T04:36:22.676Z,13.50
2018-12-19T04:41:26.368Z,12.57
2018-12-19T04:46:29.836Z,12.83
2018-12-19T04:51:33.476Z,12.80
2018-12-19T04:56:36.968Z,13.37
2018-12-19T05:01:40.511Z,13.13
2018-12-19T05:06:43.911Z,13.87
2018-12-19T05:11:47.780Z,13.57
2018-12-19T05:16:51.321Z,13.77
2018-12-19T05:21:55.005Z,14.67
2018-12-19T05:26:58.516Z,15.73
2018-12-19T05:32:01.984Z,14.47
2018-12-19T05:37:05.627Z,14.03
2018-12-19T05:42:09.268Z,14.03
2018-12-19T05:47:13.144Z,12.97
2018-12-19T05:52:16.709Z,13.53
2018-12-19T05:57:20.436Z,13.17
2018-12-19T06:02:23.988Z,12.00
2018-12-19T06:07:27.613Z,12.97
2018-12-19T06:12:31.205Z,12.37
2018-12-19T06:17:34.724Z,12.83
2018-12-19T06:22:38.504Z,13.50
2018-12-19T06:27:42.061Z,12.43
2018-12-19T06:32:45.861Z,13.33
2018-12-19T06:37:49.460Z,8.70
2018-12-19T06:42:52.936Z,12.50
2018-12-19T06:47:56.449Z,14.03
2018-12-19T06:52:59.860Z,13.70
2018-12-19T06:58:03.268Z,13.00
2018-12-19T07:03:06.686Z,16.23
2018-12-19T07:08:10.099Z,13.27
2018-12-19T07:13:13.633Z,12.93
2018-12-19T07:18:17.104Z,13.47
2018-12-19T07:23:20.736Z,13.10
2018-12-19T07:28:24.200Z,13.43
2018-12-19T07:33:27.748Z,12.23
2018-12-19T07:38:31.276Z,14.40
2018-12-19T07:43:34.788Z,13.87
2018-12-19T07:48:38.528Z,15.50
2018-12-19T07:53:42.024Z,16.17
2018-12-19T07:58:45.596Z,15.80
2018-12-19T08:03:49.005Z,15.57
2018-12-19T08:08:52.620Z,15.60
2018-12-19T08:13:56.310Z,14.17
2018-12-19T08:18:59.789Z,15.30
2018-12-19T08:24:03.580Z,14.53
2018-12-19T08:29:07.130Z,15.63
2018-12-19T08:34:10.651Z,15.63
2018-12-19T08:39:14.487Z,15.17
2018-12-19T08:44:17.916Z,16.60
2018-12-19T08:49:21.329Z,15.37
2018-12-19T08:54:25.028Z,15.20
2018-12-19T08:59:28.681Z,15.07
2018-12-19T09:04:32.303Z,15.37
2018-12-19T09:09:35.717Z,15.63
2018-12-19T09:14:39.167Z,14.43
2018-12-19T09:19:42.800Z,15.47
2018-12-19T09:24:46.251Z,14.90
2018-12-19T09:29:49.711Z,14.80
2018-12-19T09:34:53.130Z,15.33
2018-12-19T09:39:56.575Z,16.00
2018-12-19T09:44:59.975Z,15.17
2018-12-19T09:50:04.088Z,15.53
2018-12-19T09:55:07.620Z,14.20
2018-12-19T10:00:17.484Z,14.93
2018-12-19T10:05:20.980Z,15.13
2018-12-19T10:10:24.477Z,14.20
2018-12-19T10:15:28.056Z,15.00
2018-12-19T10:20:31.516Z,15.60
2018-12-19T10:25:35.188Z,15.80
2018-12-19T10:30:47.095Z,15.27
2018-12-19T10:35:51.348Z,15.43
2018-12-19T10:40:54.763Z,16.10
2018-12-19T10:45:58.308Z,15.80
2018-12-19T10:51:01.713Z,15.07
2018-12-19T10:56:05.292Z,14.27
2018-12-19T11:01:09.004Z,14.73
2018-12-19T11:06:12.480Z,14.03
2018-12-19T11:11:15.984Z,13.83
2018-12-19T11:16:19.476Z,13.50
2018-12-19T11:21:23.000Z,13.93
2018-12-19T11:26:27.659Z,14.07
2018-12-19T11:31:31.156Z,13.53
2018-12-19T11:36:34.668Z,14.50
2018-12-19T11:41:39.229Z,13.57
2018-12-19T11:46:42.980Z,14.10
2018-12-19T11:51:46.401Z,12.60
2018-12-19T11:56:49.859Z,12.27
2018-12-19T12:01:53.432Z,11.00
2018-12-19T12:06:56.844Z,11.00
2018-12-19T12:12:00.287Z,12.40
2018-12-19T12:17:03.711Z,12.67
2018-12-19T12:22:07.284Z,12.07
2018-12-19T12:27:11.000Z,11.17
2018-12-19T12:32:14.551Z,11.43
2018-12-19T12:37:18.020Z,12.10
2018-12-19T12:42:21.640Z,11.27
2018-12-19T12:47:25.652Z,10.97
2018-12-19T12:52:29.132Z,10.90
2018-12-19T12:57:32.761Z,10.57
2018-12-19T13:02:36.224Z,10.10
2018-12-19T13:07:39.780Z,10.33
2018-12-19T13:12:43.461Z,10.17
2018-12-19T13:17:47.579Z,11.43
2018-12-19T13:22:51.420Z,12.47
2018-12-19T13:27:55.679Z,9.77
2018-12-19T13:32:59.104Z,11.00
2018-12-19T13:38:02.704Z,10.43
2018-12-19T13:43:06.382Z,10.93
2018-12-19T13:48:11.099Z,12.77
2018-12-19T13:53:14.579Z,11.93
2018-12-19T13:58:19.076Z,10.60
2018-12-19T14:03:22.801Z,12.13
2018-12-19T14:08:26.613Z,11.13
2018-12-19T14:13:30.289Z,10.93
2018-12-19T14:18:33.748Z,11.53
2018-12-19T14:23:37.256Z,12.23
2018-12-19T14:28:40.996Z,11.80
2018-12-19T14:33:44.881Z,12.13
2018-12-19T14:38:48.624Z,11.27
2018-12-19T14:43:52.135Z,12.70
2018-12-19T14:48:55.863Z,12.30
2018-12-19T14:53:59.416Z,18.90
2018-12-19T14:59:02.840Z,11.73
2018-12-19T15:04:06.317Z,11.83
2018-12-19T15:09:09.816Z,11.13
2018-12-19T15:14:13.392Z,11.97
2018-12-19T15:19:16.952Z,12.40
2018-12-19T15:24:20.540Z,11.63
2018-12-19T15:29:24.384Z,13.53
2018-12-19T15:34:27.988Z,12.30
2018-12-19T15:39:31.392Z,19.00
2018-12-19T15:44:34.943Z,15.43
2018-12-19T15:49:38.372Z,12.47
2018-12-19T15:54:41.928Z,11.80
2018-12-19T15:59:45.452Z,12.93
2018-12-19T16:04:48.956Z,12.77
2018-12-19T16:09:52.389Z,14.30
2018-12-19T16:14:55.904Z,11.37
2018-12-19T16:19:59.420Z,14.60
2018-12-19T16:25:02.973Z,15.33
2018-12-19T16:30:08.044Z,12.23
2018-12-19T16:35:11.466Z,12.23
2018-12-19T16:40:15.124Z,14.30
2018-12-19T16:45:18.532Z,14.33
2018-12-19T16:50:22.052Z,11.60
2018-12-19T16:55:25.468Z,12.10
2018-12-19T17:00:28.877Z,13.30
2018-12-19T17:05:32.435Z,12.43
2018-12-19T17:10:35.851Z,11.80
2018-12-19T17:15:39.328Z,12.80
2018-12-19T17:20:42.736Z,14.77
2018-12-19T17:25:47.761Z,13.23
2018-12-19T17:30:51.491Z,13.70
2018-12-19T17:35:54.997Z,18.23
2018-12-19T17:40:58.413Z,20.57
2018-12-19T17:46:01.812Z,18.40
2018-12-19T17:51:05.340Z,20.70
2018-12-19T17:56:08.773Z,19.77
2018-12-19T18:01:12.532Z,16.63
2018-12-19T18:06:15.932Z,18.47
2018-12-19T18:11:19.404Z,21.67
2018-12-19T18:16:22.885Z,28.37
2018-12-19T18:21:26.480Z,18.73
2018-12-19T18:26:30.011Z,15.93
2018-12-19T18:31:33.495Z,16.17
2018-12-19T18:36:36.900Z,16.67
2018-12-19T18:41:40.503Z,15.87
2018-12-19T18:46:43.956Z,15.93
2018-12-19T18:51:47.582Z,17.57
2018-12-19T18:56:51.420Z,19.17
2018-12-19T19:01:54.978Z,18.07
2018-12-19T19:06:58.571Z,17.40
2018-12-19T19:12:02.199Z,16.03
2018-12-19T19:17:06.380Z,15.73
2018-12-19T19:22:10.540Z,17.47
2018-12-19T19:27:14.077Z,15.87
2018-12-19T19:32:18.794Z,15.67
2018-12-19T19:37:22.480Z,15.67
2018-12-19T19:42:26.066Z,16.30
2018-12-19T19:47:29.648Z,16.43
2018-12-19T19:52:33.199Z,16.97
2018-12-19T19:57:36.708Z,16.57
2018-12-19T20:02:40.857Z,16.87
2018-12-19T20:07:44.289Z,15.33
2018-12-19T20:12:48.059Z,15.70
2018-12-19T20:17:51.965Z,15.43
2018-12-19T20:22:55.384Z,14.77
2018-12-19T20:27:59.821Z,15.03
2018-12-19T20:33:08.073Z,14.27
2018-12-19T20:38:11.748Z,16.33
2018-12-19T20:43:15.197Z,15.43
2018-12-19T20:48:28.261Z,15.13
2018-12-19T20:53:32.509Z,15.27
2018-12-19T20:58:36.016Z,15.90
2018-12-19T21:03:39.688Z,14.93
2018-12-19T21:08:43.100Z,15.17
2018-12-19T21:13:46.994Z,14.93
2018-12-19T21:18:52.394Z,18.80
2018-12-19T21:23:55.899Z,18.23
2018-12-19T21:28:59.500Z,19.90
2018-12-19T21:34:03.036Z,24.23
2018-12-19T21:39:09.751Z,21.00
2018-12-19T21:44:13.492Z,18.20
2018-12-19T21:49:17.856Z,18.27
2018-12-19T21:54:21.367Z,17.63
2018-12-19T21:59:25.453Z,18.63
2018-12-19T22:04:28.998Z,19.17
2018-12-19T22:09:32.765Z,18.77
2018-12-19T22:14:36.618Z,18.40
2018-12-19T22:19:40.336Z,17.77
2018-12-19T22:24:43.879Z,17.77
2018-12-19T22:29:47.500Z,16.60
2018-12-19T22:34:51.281Z,17.53
2018-12-19T22:39:55.071Z,18.23
2018-12-19T22:44:58.605Z,18.40
2018-12-19T22:50:03.125Z,19.60
2018-12-19T22:55:06.754Z,18.50
2018-12-19T23:00:16.903Z,16.47
2018-12-19T23:05:25.835Z,17.30
2018-12-19T23:10:30.043Z,16.80
2018-12-19T23:15:33.653Z,16.70
2018-12-19T23:20:37.201Z,16.83
2018-12-19T23:25:40.792Z,17.23
2018-12-19T23:30:44.405Z,16.97
2018-12-19T23:35:48.370Z,17.10
2018-12-19T23:40:52.201Z,18.27
2018-12-19T23:45:55.694Z,16.60
2018-12-19T23:50:59.207Z,17.77
2018-12-19T23:56:02.772Z,16.03
